sensor_id;sensor_type;location;lat;lon;timestamp;P1;durP1;ratioP1;P2;durP2;ratioP2
16965;SDS011;8599;47.852;12.070;2022-09-09T00:00:17;0.80;;;0.63;;
16965;SDS011;8599;47.852;12.070;2022-09-09T00:02:47;1.20;;;0.53;;
16965;SDS011;8599;47.852;12.070;2022-09-09T00:05:22;5.23;;;0.50;;
16965;SDS011;8599;47.852;12.070;2022-09-09T00:07:55;0.90;;;0.60;;
16965;SDS011;8599;47.852;12.070;2022-09-09T00:10:27;2.67;;;0.80;;
16965;SDS011;8599;47.852;12.070;2022-09-09T00:12:57;0.67;;;0.67;;
16965;SDS011;8599;47.852;12.070;2022-09-09T00:15:29;2.73;;;0.90;;
16965;SDS011;8599;47.852;12.070;2022-09-09T00:18:02;4.07;;;0.60;;
16965;SDS011;8599;47.852;12.070;2022-09-09T00:20:38;3.70;;;0.70;;
16965;SDS011;8599;47.852;12.070;2022-09-09T00:23:11;1.87;;;0.70;;
16965;SDS011;8599;47.852;12.070;2022-09-09T00:25:42;0.50;;;0.50;;
16965;SDS011;8599;47.852;12.070;2022-09-09T00:28:17;2.27;;;0.77;;
16965;SDS011;8599;47.852;12.070;2022-09-09T00:30:45;1.73;;;0.83;;
16965;SDS011;8599;47.852;12.070;2022-09-09T00:33:14;3.00;;;0.60;;
16965;SDS011;8599;47.852;12.070;2022-09-09T00:35:47;0.60;;;0.60;;
16965;SDS011;8599;47.852;12.070;2022-09-09T00:38:18;0.60;;;0.60;;
16965;SDS011;8599;47.852;12.070;2022-09-09T00:40:50;0.67;;;0.67;;
16965;SDS011;8599;47.852;12.070;2022-09-09T00:43:25;1.33;;;0.80;;
16965;SDS011;8599;47.852;12.070;2022-09-09T00:46:02;1.23;;;0.80;;
16965;SDS011;8599;47.852;12.070;2022-09-09T00:48:52;1.60;;;0.77;;
16965;SDS011;8599;47.852;12.070;2022-09-09T00:51:28;2.57;;;0.70;;
16965;SDS011;8599;47.852;12.070;2022-09-09T00:54:10;4.50;;;0.80;;
16965;SDS011;8599;47.852;12.070;2022-09-09T00:57:00;1.37;;;0.60;;
16965;SDS011;8599;47.852;12.070;2022-09-09T00:59:39;2.67;;;0.60;;
16965;SDS011;8599;47.852;12.070;2022-09-09T01:02:13;2.30;;;0.40;;
16965;SDS011;8599;47.852;12.070;2022-09-09T01:04:48;2.17;;;0.50;;
16965;SDS011;8599;47.852;12.070;2022-09-09T01:07:15;8.30;;;0.73;;
16965;SDS011;8599;47.852;12.070;2022-09-09T01:09:55;1.80;;;0.70;;
16965;SDS011;8599;47.852;12.070;2022-09-09T01:12:25;2.43;;;0.90;;
16965;SDS011;8599;47.852;12.070;2022-09-09T01:15:01;4.10;;;0.80;;
16965;SDS011;8599;47.852;12.070;2022-09-09T01:17:35;0.77;;;0.77;;
16965;SDS011;8599;47.852;12.070;2022-09-09T01:20:08;4.43;;;0.97;;
16965;SDS011;8599;47.852;12.070;2022-09-09T01:22:44;1.50;;;0.80;;
16965;SDS011;8599;47.852;12.070;2022-09-09T01:25:22;3.67;;;0.83;;
16965;SDS011;8599;47.852;12.070;2022-09-09T01:27:56;2.47;;;1.27;;
16965;SDS011;8599;47.852;12.070;2022-09-09T01:30:25;4.87;;;0.97;;
16965;SDS011;8599;47.852;12.070;2022-09-09T01:32:54;3.53;;;1.00;;
16965;SDS011;8599;47.852;12.070;2022-09-09T01:35:28;6.00;;;1.07;;
16965;SDS011;8599;47.852;12.070;2022-09-09T01:38:03;3.37;;;0.90;;
16965;SDS011;8599;47.852;12.070;2022-09-09T01:40:30;0.93;;;0.73;;
16965;SDS011;8599;47.852;12.070;2022-09-09T01:42:59;1.17;;;0.77;;
16965;SDS011;8599;47.852;12.070;2022-09-09T01:45:26;2.23;;;0.70;;
16965;SDS011;8599;47.852;12.070;2022-09-09T01:47:53;0.80;;;0.80;;
16965;SDS011;8599;47.852;12.070;2022-09-09T01:50:20;2.37;;;0.83;;
16965;SDS011;8599;47.852;12.070;2022-09-09T01:52:51;1.70;;;0.93;;
16965;SDS011;8599;47.852;12.070;2022-09-09T01:55:26;1.03;;;0.80;;
16965;SDS011;8599;47.852;12.070;2022-09-09T01:57:57;0.83;;;0.70;;
16965;SDS011;8599;47.852;12.070;2022-09-09T02:00:38;1.20;;;0.90;;
16965;SDS011;8599;47.852;12.070;2022-09-09T02:03:11;1.67;;;0.77;;
16965;SDS011;8599;47.852;12.070;2022-09-09T02:05:48;4.97;;;0.97;;
16965;SDS011;8599;47.852;12.070;2022-09-09T02:08:23;0.73;;;0.60;;
16965;SDS011;8599;47.852;12.070;2022-09-09T02:10:55;1.80;;;0.60;;
16965;SDS011;8599;47.852;12.070;2022-09-09T02:13:28;1.60;;;0.97;;
16965;SDS011;8599;47.852;12.070;2022-09-09T02:15:58;2.87;;;1.10;;
16965;SDS011;8599;47.852;12.070;2022-09-09T02:18:30;3.43;;;0.70;;
16965;SDS011;8599;47.852;12.070;2022-09-09T02:21:01;8.23;;;1.00;;
16965;SDS011;8599;47.852;12.070;2022-09-09T02:23:29;1.97;;;0.70;;
16965;SDS011;8599;47.852;12.070;2022-09-09T02:25:58;6.07;;;0.90;;
16965;SDS011;8599;47.852;12.070;2022-09-09T02:28:26;1.33;;;0.80;;
16965;SDS011;8599;47.852;12.070;2022-09-09T02:30:57;3.87;;;1.10;;
16965;SDS011;8599;47.852;12.070;2022-09-09T02:33:26;4.50;;;1.00;;
16965;SDS011;8599;47.852;12.070;2022-09-09T02:36:14;1.27;;;0.70;;
16965;SDS011;8599;47.852;12.070;2022-09-09T02:38:44;3.23;;;0.80;;
16965;SDS011;8599;47.852;12.070;2022-09-09T02:41:18;1.93;;;0.77;;
16965;SDS011;8599;47.852;12.070;2022-09-09T02:43:49;3.00;;;0.77;;
16965;SDS011;8599;47.852;12.070;2022-09-09T02:46:22;1.13;;;0.80;;
16965;SDS011;8599;47.852;12.070;2022-09-09T02:48:59;3.13;;;0.53;;
16965;SDS011;8599;47.852;12.070;2022-09-09T02:51:28;0.87;;;0.60;;
16965;SDS011;8599;47.852;12.070;2022-09-09T02:54:04;4.63;;;1.23;;
16965;SDS011;8599;47.852;12.070;2022-09-09T02:56:39;1.13;;;0.60;;
16965;SDS011;8599;47.852;12.070;2022-09-09T02:59:11;3.43;;;0.80;;
16965;SDS011;8599;47.852;12.070;2022-09-09T03:01:38;4.10;;;0.70;;
16965;SDS011;8599;47.852;12.070;2022-09-09T03:04:05;5.30;;;0.80;;
16965;SDS011;8599;47.852;12.070;2022-09-09T03:06:32;0.93;;;0.93;;
16965;SDS011;8599;47.852;12.070;2022-09-09T03:08:58;2.20;;;0.90;;
16965;SDS011;8599;47.852;12.070;2022-09-09T03:11:27;1.10;;;0.73;;
16965;SDS011;8599;47.852;12.070;2022-09-09T03:13:54;4.87;;;1.00;;
16965;SDS011;8599;47.852;12.070;2022-09-09T03:16:22;5.03;;;0.67;;
16965;SDS011;8599;47.852;12.070;2022-09-09T03:18:49;2.23;;;0.87;;
16965;SDS011;8599;47.852;12.070;2022-09-09T03:21:16;3.40;;;0.60;;
16965;SDS011;8599;47.852;12.070;2022-09-09T03:23:43;0.90;;;0.70;;
16965;SDS011;8599;47.852;12.070;2022-09-09T03:26:11;2.10;;;0.90;;
16965;SDS011;8599;47.852;12.070;2022-09-09T03:28:40;1.47;;;0.90;;
16965;SDS011;8599;47.852;12.070;2022-09-09T03:31:06;0.80;;;0.70;;
16965;SDS011;8599;47.852;12.070;2022-09-09T03:33:36;1.90;;;0.77;;
16965;SDS011;8599;47.852;12.070;2022-09-09T03:36:04;0.93;;;0.70;;
16965;SDS011;8599;47.852;12.070;2022-09-09T03:38:32;2.73;;;0.80;;
16965;SDS011;8599;47.852;12.070;2022-09-09T03:40:59;1.70;;;0.70;;
16965;SDS011;8599;47.852;12.070;2022-09-09T03:43:27;1.10;;;0.90;;
16965;SDS011;8599;47.852;12.070;2022-09-09T03:45:54;1.30;;;0.90;;
16965;SDS011;8599;47.852;12.070;2022-09-09T03:48:23;1.63;;;1.30;;
16965;SDS011;8599;47.852;12.070;2022-09-09T03:50:52;4.50;;;0.80;;
16965;SDS011;8599;47.852;12.070;2022-09-09T03:53:21;1.17;;;0.80;;
16965;SDS011;8599;47.852;12.070;2022-09-09T03:55:50;1.27;;;0.87;;
16965;SDS011;8599;47.852;12.070;2022-09-09T03:58:20;0.50;;;0.50;;
16965;SDS011;8599;47.852;12.070;2022-09-09T04:00:58;1.60;;;0.87;;
16965;SDS011;8599;47.852;12.070;2022-09-09T04:03:26;0.83;;;0.80;;
16965;SDS011;8599;47.852;12.070;2022-09-09T04:05:56;0.70;;;0.70;;
16965;SDS011;8599;47.852;12.070;2022-09-09T04:08:24;2.70;;;1.07;;
16965;SDS011;8599;47.852;12.070;2022-09-09T04:10:52;2.80;;;0.80;;
16965;SDS011;8599;47.852;12.070;2022-09-09T04:13:22;2.43;;;1.10;;
16965;SDS011;8599;47.852;12.070;2022-09-09T04:15:50;4.23;;;1.10;;
16965;SDS011;8599;47.852;12.070;2022-09-09T04:18:18;3.37;;;1.00;;
16965;SDS011;8599;47.852;12.070;2022-09-09T04:20:46;1.83;;;0.90;;
16965;SDS011;8599;47.852;12.070;2022-09-09T04:23:15;0.83;;;0.70;;
16965;SDS011;8599;47.852;12.070;2022-09-09T04:25:43;3.03;;;0.70;;
16965;SDS011;8599;47.852;12.070;2022-09-09T04:28:11;1.13;;;0.63;;
16965;SDS011;8599;47.852;12.070;2022-09-09T04:30:38;0.70;;;0.60;;
16965;SDS011;8599;47.852;12.070;2022-09-09T04:33:05;1.63;;;0.90;;
16965;SDS011;8599;47.852;12.070;2022-09-09T04:35:33;1.43;;;0.77;;
16965;SDS011;8599;47.852;12.070;2022-09-09T04:38:00;3.40;;;0.87;;
16965;SDS011;8599;47.852;12.070;2022-09-09T04:40:30;4.20;;;1.05;;
16965;SDS011;8599;47.852;12.070;2022-09-09T04:42:58;4.43;;;1.07;;
16965;SDS011;8599;47.852;12.070;2022-09-09T04:45:25;3.33;;;1.00;;
16965;SDS011;8599;47.852;12.070;2022-09-09T04:47:52;2.00;;;1.10;;
16965;SDS011;8599;47.852;12.070;2022-09-09T04:50:19;3.80;;;1.00;;
16965;SDS011;8599;47.852;12.070;2022-09-09T04:52:46;4.50;;;0.80;;
16965;SDS011;8599;47.852;12.070;2022-09-09T04:55:13;1.60;;;0.80;;
16965;SDS011;8599;47.852;12.070;2022-09-09T04:57:42;1.43;;;0.73;;
16965;SDS011;8599;47.852;12.070;2022-09-09T05:00:09;1.13;;;0.80;;
16965;SDS011;8599;47.852;12.070;2022-09-09T05:02:37;0.83;;;0.80;;
16965;SDS011;8599;47.852;12.070;2022-09-09T05:05:05;2.83;;;1.00;;
16965;SDS011;8599;47.852;12.070;2022-09-09T05:07:32;1.73;;;0.80;;
16965;SDS011;8599;47.852;12.070;2022-09-09T05:09:59;3.73;;;2.70;;
16965;SDS011;8599;47.852;12.070;2022-09-09T05:12:26;2.60;;;1.20;;
16965;SDS011;8599;47.852;12.070;2022-09-09T05:14:55;1.03;;;0.83;;
16965;SDS011;8599;47.852;12.070;2022-09-09T05:17:21;1.70;;;0.90;;
16965;SDS011;8599;47.852;12.070;2022-09-09T05:19:49;3.33;;;0.90;;
16965;SDS011;8599;47.852;12.070;2022-09-09T05:22:18;1.37;;;1.07;;
16965;SDS011;8599;47.852;12.070;2022-09-09T05:24:46;6.27;;;0.80;;
16965;SDS011;8599;47.852;12.070;2022-09-09T05:27:15;1.20;;;0.90;;
16965;SDS011;8599;47.852;12.070;2022-09-09T05:29:43;1.80;;;0.93;;
16965;SDS011;8599;47.852;12.070;2022-09-09T05:32:11;3.90;;;1.40;;
16965;SDS011;8599;47.852;12.070;2022-09-09T05:34:40;1.77;;;0.90;;
16965;SDS011;8599;47.852;12.070;2022-09-09T05:37:06;1.27;;;0.90;;
16965;SDS011;8599;47.852;12.070;2022-09-09T05:39:33;4.83;;;1.00;;
16965;SDS011;8599;47.852;12.070;2022-09-09T05:42:02;2.67;;;1.00;;
16965;SDS011;8599;47.852;12.070;2022-09-09T05:44:29;0.83;;;0.83;;
16965;SDS011;8599;47.852;12.070;2022-09-09T05:46:56;8.17;;;1.33;;
16965;SDS011;8599;47.852;12.070;2022-09-09T05:49:24;1.63;;;1.13;;
16965;SDS011;8599;47.852;12.070;2022-09-09T05:51:51;4.57;;;1.47;;
16965;SDS011;8599;47.852;12.070;2022-09-09T05:54:18;12.30;;;2.60;;
16965;SDS011;8599;47.852;12.070;2022-09-09T05:56:46;7.10;;;4.20;;
16965;SDS011;8599;47.852;12.070;2022-09-09T05:59:15;8.67;;;3.50;;
16965;SDS011;8599;47.852;12.070;2022-09-09T06:01:43;5.07;;;2.50;;
16965;SDS011;8599;47.852;12.070;2022-09-09T06:04:10;7.57;;;3.00;;
16965;SDS011;8599;47.852;12.070;2022-09-09T06:06:38;4.13;;;3.00;;
16965;SDS011;8599;47.852;12.070;2022-09-09T06:09:07;4.03;;;1.13;;
16965;SDS011;8599;47.852;12.070;2022-09-09T06:11:36;3.57;;;1.17;;
16965;SDS011;8599;47.852;12.070;2022-09-09T06:14:04;1.03;;;0.90;;
16965;SDS011;8599;47.852;12.070;2022-09-09T06:16:31;2.47;;;1.30;;
16965;SDS011;8599;47.852;12.070;2022-09-09T06:18:59;0.87;;;0.80;;
16965;SDS011;8599;47.852;12.070;2022-09-09T06:21:28;2.10;;;0.87;;
16965;SDS011;8599;47.852;12.070;2022-09-09T06:23:59;0.80;;;0.80;;
16965;SDS011;8599;47.852;12.070;2022-09-09T06:26:26;2.10;;;0.90;;
16965;SDS011;8599;47.852;12.070;2022-09-09T06:28:55;3.50;;;1.13;;
16965;SDS011;8599;47.852;12.070;2022-09-09T06:31:24;5.30;;;1.00;;
16965;SDS011;8599;47.852;12.070;2022-09-09T06:33:52;3.63;;;1.23;;
16965;SDS011;8599;47.852;12.070;2022-09-09T06:36:20;4.77;;;1.27;;
16965;SDS011;8599;47.852;12.070;2022-09-09T06:38:48;3.27;;;1.13;;
16965;SDS011;8599;47.852;12.070;2022-09-09T06:41:17;2.03;;;1.20;;
16965;SDS011;8599;47.852;12.070;2022-09-09T06:43:45;5.00;;;1.87;;
16965;SDS011;8599;47.852;12.070;2022-09-09T06:46:13;2.57;;;1.70;;
16965;SDS011;8599;47.852;12.070;2022-09-09T06:48:41;3.57;;;1.50;;
16965;SDS011;8599;47.852;12.070;2022-09-09T06:51:10;4.87;;;1.63;;
16965;SDS011;8599;47.852;12.070;2022-09-09T06:53:38;8.80;;;1.93;;
16965;SDS011;8599;47.852;12.070;2022-09-09T06:56:18;3.73;;;1.47;;
16965;SDS011;8599;47.852;12.070;2022-09-09T06:58:46;4.03;;;1.40;;
16965;SDS011;8599;47.852;12.070;2022-09-09T07:01:14;5.93;;;1.43;;
16965;SDS011;8599;47.852;12.070;2022-09-09T07:03:45;2.07;;;0.97;;
16965;SDS011;8599;47.852;12.070;2022-09-09T07:06:13;4.50;;;1.50;;
16965;SDS011;8599;47.852;12.070;2022-09-09T07:08:43;2.13;;;1.00;;
16965;SDS011;8599;47.852;12.070;2022-09-09T07:11:09;2.07;;;1.10;;
16965;SDS011;8599;47.852;12.070;2022-09-09T07:13:38;0.87;;;0.80;;
16965;SDS011;8599;47.852;12.070;2022-09-09T07:16:05;2.73;;;1.00;;
16965;SDS011;8599;47.852;12.070;2022-09-09T07:18:33;3.87;;;1.60;;
16965;SDS011;8599;47.852;12.070;2022-09-09T07:21:00;2.20;;;1.00;;
16965;SDS011;8599;47.852;12.070;2022-09-09T07:23:29;2.10;;;1.20;;
16965;SDS011;8599;47.852;12.070;2022-09-09T07:25:56;2.90;;;1.30;;
16965;SDS011;8599;47.852;12.070;2022-09-09T07:28:24;2.83;;;1.03;;
16965;SDS011;8599;47.852;12.070;2022-09-09T07:30:55;5.33;;;0.90;;
16965;SDS011;8599;47.852;12.070;2022-09-09T07:33:23;1.67;;;1.23;;
16965;SDS011;8599;47.852;12.070;2022-09-09T07:35:50;1.97;;;1.30;;
16965;SDS011;8599;47.852;12.070;2022-09-09T07:38:18;2.03;;;1.00;;
16965;SDS011;8599;47.852;12.070;2022-09-09T07:40:45;4.03;;;1.07;;
16965;SDS011;8599;47.852;12.070;2022-09-09T07:43:12;2.40;;;0.90;;
16965;SDS011;8599;47.852;12.070;2022-09-09T07:45:39;2.00;;;0.90;;
16965;SDS011;8599;47.852;12.070;2022-09-09T07:48:08;6.50;;;1.10;;
16965;SDS011;8599;47.852;12.070;2022-09-09T07:50:36;5.43;;;1.10;;
16965;SDS011;8599;47.852;12.070;2022-09-09T07:53:04;1.37;;;0.97;;
16965;SDS011;8599;47.852;12.070;2022-09-09T07:55:31;1.63;;;1.10;;
16965;SDS011;8599;47.852;12.070;2022-09-09T07:57:58;1.27;;;1.00;;
16965;SDS011;8599;47.852;12.070;2022-09-09T08:00:25;2.10;;;1.03;;
16965;SDS011;8599;47.852;12.070;2022-09-09T08:02:53;2.53;;;1.23;;
16965;SDS011;8599;47.852;12.070;2022-09-09T08:05:21;1.97;;;1.00;;
16965;SDS011;8599;47.852;12.070;2022-09-09T08:07:48;1.83;;;0.97;;
16965;SDS011;8599;47.852;12.070;2022-09-09T08:10:15;2.77;;;1.37;;
16965;SDS011;8599;47.852;12.070;2022-09-09T08:12:43;4.60;;;1.10;;
16965;SDS011;8599;47.852;12.070;2022-09-09T08:15:10;1.60;;;1.00;;
16965;SDS011;8599;47.852;12.070;2022-09-09T08:17:37;2.77;;;1.03;;
16965;SDS011;8599;47.852;12.070;2022-09-09T08:20:04;4.47;;;1.10;;
16965;SDS011;8599;47.852;12.070;2022-09-09T08:22:34;1.70;;;1.40;;
16965;SDS011;8599;47.852;12.070;2022-09-09T08:25:03;2.73;;;1.97;;
16965;SDS011;8599;47.852;12.070;2022-09-09T08:27:31;2.70;;;2.00;;
16965;SDS011;8599;47.852;12.070;2022-09-09T08:29:58;1.00;;;1.00;;
16965;SDS011;8599;47.852;12.070;2022-09-09T08:32:25;4.87;;;1.93;;
16965;SDS011;8599;47.852;12.070;2022-09-09T08:34:52;4.47;;;1.63;;
16965;SDS011;8599;47.852;12.070;2022-09-09T08:37:19;2.73;;;1.30;;
16965;SDS011;8599;47.852;12.070;2022-09-09T08:39:47;3.47;;;1.20;;
16965;SDS011;8599;47.852;12.070;2022-09-09T08:42:22;3.83;;;1.30;;
16965;SDS011;8599;47.852;12.070;2022-09-09T08:45:05;3.00;;;1.27;;
16965;SDS011;8599;47.852;12.070;2022-09-09T08:47:42;4.20;;;1.20;;
16965;SDS011;8599;47.852;12.070;2022-09-09T08:50:20;4.10;;;1.20;;
16965;SDS011;8599;47.852;12.070;2022-09-09T08:52:52;3.53;;;1.30;;
16965;SDS011;8599;47.852;12.070;2022-09-09T08:55:25;7.10;;;1.50;;
16965;SDS011;8599;47.852;12.070;2022-09-09T08:58:04;3.00;;;1.30;;
16965;SDS011;8599;47.852;12.070;2022-09-09T09:00:38;1.50;;;1.20;;
16965;SDS011;8599;47.852;12.070;2022-09-09T09:03:13;2.00;;;1.30;;
16965;SDS011;8599;47.852;12.070;2022-09-09T09:05:51;1.87;;;1.17;;
16965;SDS011;8599;47.852;12.070;2022-09-09T09:08:26;2.63;;;1.40;;
16965;SDS011;8599;47.852;12.070;2022-09-09T09:11:00;7.13;;;1.33;;
16965;SDS011;8599;47.852;12.070;2022-09-09T09:13:31;1.83;;;1.10;;
16965;SDS011;8599;47.852;12.070;2022-09-09T09:16:10;4.93;;;1.30;;
16965;SDS011;8599;47.852;12.070;2022-09-09T09:18:44;2.50;;;1.00;;
16965;SDS011;8599;47.852;12.070;2022-09-09T09:21:12;4.10;;;1.10;;
16965;SDS011;8599;47.852;12.070;2022-09-09T09:23:45;2.80;;;1.23;;
16965;SDS011;8599;47.852;12.070;2022-09-09T09:26:17;2.00;;;1.10;;
16965;SDS011;8599;47.852;12.070;2022-09-09T09:28:45;2.27;;;1.10;;
16965;SDS011;8599;47.852;12.070;2022-09-09T09:31:12;2.50;;;1.30;;
16965;SDS011;8599;47.852;12.070;2022-09-09T09:33:43;3.20;;;1.33;;
16965;SDS011;8599;47.852;12.070;2022-09-09T09:36:15;2.30;;;0.97;;
16965;SDS011;8599;47.852;12.070;2022-09-09T09:38:51;2.10;;;1.30;;
16965;SDS011;8599;47.852;12.070;2022-09-09T09:41:31;2.83;;;0.93;;
16965;SDS011;8599;47.852;12.070;2022-09-09T09:44:00;3.10;;;1.67;;
16965;SDS011;8599;47.852;12.070;2022-09-09T09:46:29;3.53;;;1.50;;
16965;SDS011;8599;47.852;12.070;2022-09-09T09:48:57;4.43;;;1.50;;
16965;SDS011;8599;47.852;12.070;2022-09-09T09:51:24;2.10;;;1.40;;
16965;SDS011;8599;47.852;12.070;2022-09-09T09:53:52;3.30;;;1.10;;
16965;SDS011;8599;47.852;12.070;2022-09-09T09:56:32;2.07;;;1.47;;
16965;SDS011;8599;47.852;12.070;2022-09-09T09:58:59;9.90;;;1.30;;
16965;SDS011;8599;47.852;12.070;2022-09-09T10:01:27;3.97;;;1.57;;
16965;SDS011;8599;47.852;12.070;2022-09-09T10:03:57;2.77;;;1.37;;
16965;SDS011;8599;47.852;12.070;2022-09-09T10:06:32;4.13;;;1.30;;
16965;SDS011;8599;47.852;12.070;2022-09-09T10:09:00;2.33;;;1.47;;
16965;SDS011;8599;47.852;12.070;2022-09-09T10:11:40;2.40;;;1.97;;
16965;SDS011;8599;47.852;12.070;2022-09-09T10:14:17;2.93;;;1.30;;
16965;SDS011;8599;47.852;12.070;2022-09-09T10:16:52;2.73;;;1.30;;
16965;SDS011;8599;47.852;12.070;2022-09-09T10:19:32;2.23;;;1.70;;
16965;SDS011;8599;47.852;12.070;2022-09-09T10:22:02;3.37;;;1.20;;
16965;SDS011;8599;47.852;12.070;2022-09-09T10:24:43;1.43;;;1.27;;
16965;SDS011;8599;47.852;12.070;2022-09-09T10:27:27;2.90;;;1.30;;
16965;SDS011;8599;47.852;12.070;2022-09-09T10:30:09;5.67;;;1.30;;
16965;SDS011;8599;47.852;12.070;2022-09-09T10:32:45;5.83;;;1.40;;
16965;SDS011;8599;47.852;12.070;2022-09-09T10:35:24;1.63;;;1.00;;
16965;SDS011;8599;47.852;12.070;2022-09-09T10:38:05;2.90;;;0.97;;
16965;SDS011;8599;47.852;12.070;2022-09-09T10:40:42;6.03;;;0.90;;
16965;SDS011;8599;47.852;12.070;2022-09-09T10:43:20;6.13;;;1.20;;
16965;SDS011;8599;47.852;12.070;2022-09-09T10:46:01;2.83;;;1.20;;
16965;SDS011;8599;47.852;12.070;2022-09-09T10:48:41;1.90;;;0.90;;
16965;SDS011;8599;47.852;12.070;2022-09-09T10:51:23;2.17;;;0.80;;
16965;SDS011;8599;47.852;12.070;2022-09-09T10:54:07;6.53;;;1.20;;
16965;SDS011;8599;47.852;12.070;2022-09-09T10:56:58;1.83;;;0.80;;
16965;SDS011;8599;47.852;12.070;2022-09-09T10:59:32;2.20;;;1.10;;
16965;SDS011;8599;47.852;12.070;2022-09-09T11:02:05;4.33;;;1.07;;
16965;SDS011;8599;47.852;12.070;2022-09-09T11:04:42;3.90;;;1.00;;
16965;SDS011;8599;47.852;12.070;2022-09-09T11:07:16;3.70;;;1.17;;
16965;SDS011;8599;47.852;12.070;2022-09-09T11:09:52;3.97;;;1.23;;
16965;SDS011;8599;47.852;12.070;2022-09-09T11:12:32;4.63;;;1.80;;
16965;SDS011;8599;47.852;12.070;2022-09-09T11:15:06;3.53;;;1.70;;
16965;SDS011;8599;47.852;12.070;2022-09-09T11:17:42;5.73;;;1.30;;
16965;SDS011;8599;47.852;12.070;2022-09-09T11:20:14;3.00;;;0.90;;
16965;SDS011;8599;47.852;12.070;2022-09-09T11:22:44;2.77;;;0.97;;
16965;SDS011;8599;47.852;12.070;2022-09-09T11:25:15;3.37;;;1.00;;
16965;SDS011;8599;47.852;12.070;2022-09-09T11:27:49;4.07;;;1.10;;
16965;SDS011;8599;47.852;12.070;2022-09-09T11:30:28;1.90;;;1.20;;
16965;SDS011;8599;47.852;12.070;2022-09-09T11:36:16;2.97;;;1.70;;
16965;SDS011;8599;47.852;12.070;2022-09-09T11:38:52;2.67;;;1.20;;
16965;SDS011;8599;47.852;12.070;2022-09-09T11:41:32;5.43;;;2.10;;
16965;SDS011;8599;47.852;12.070;2022-09-09T11:44:08;5.07;;;2.20;;
16965;SDS011;8599;47.852;12.070;2022-09-09T11:46:38;3.03;;;1.50;;
16965;SDS011;8599;47.852;12.070;2022-09-09T11:49:21;1.43;;;0.93;;
16965;SDS011;8599;47.852;12.070;2022-09-09T11:51:53;2.50;;;1.30;;
16965;SDS011;8599;47.852;12.070;2022-09-09T11:54:26;5.23;;;1.40;;
16965;SDS011;8599;47.852;12.070;2022-09-09T11:56:55;3.30;;;1.97;;
16965;SDS011;8599;47.852;12.070;2022-09-09T11:59:24;6.07;;;3.07;;
16965;SDS011;8599;47.852;12.070;2022-09-09T12:01:55;3.00;;;1.90;;
16965;SDS011;8599;47.852;12.070;2022-09-09T12:04:28;3.00;;;1.80;;
16965;SDS011;8599;47.852;12.070;2022-09-09T12:07:00;2.37;;;2.00;;
16965;SDS011;8599;47.852;12.070;2022-09-09T12:09:30;2.30;;;1.90;;
16965;SDS011;8599;47.852;12.070;2022-09-09T12:12:06;2.67;;;1.40;;
16965;SDS011;8599;47.852;12.070;2022-09-09T12:14:55;9.07;;;2.83;;
16965;SDS011;8599;47.852;12.070;2022-09-09T12:17:28;4.53;;;1.80;;
16965;SDS011;8599;47.852;12.070;2022-09-09T12:20:09;2.70;;;1.60;;
16965;SDS011;8599;47.852;12.070;2022-09-09T12:22:42;4.00;;;1.53;;
16965;SDS011;8599;47.852;12.070;2022-09-09T12:25:29;3.43;;;1.30;;
16965;SDS011;8599;47.852;12.070;2022-09-09T12:28:15;1.53;;;1.00;;
16965;SDS011;8599;47.852;12.070;2022-09-09T12:30:48;3.20;;;1.70;;
16965;SDS011;8599;47.852;12.070;2022-09-09T12:33:22;3.80;;;1.60;;
16965;SDS011;8599;47.852;12.070;2022-09-09T12:35:51;6.80;;;1.60;;
16965;SDS011;8599;47.852;12.070;2022-09-09T12:38:22;2.17;;;1.10;;
16965;SDS011;8599;47.852;12.070;2022-09-09T12:40:55;1.73;;;1.17;;
16965;SDS011;8599;47.852;12.070;2022-09-09T12:43:23;1.97;;;1.37;;
16965;SDS011;8599;47.852;12.070;2022-09-09T12:45:52;4.77;;;1.70;;
16965;SDS011;8599;47.852;12.070;2022-09-09T12:48:27;3.53;;;1.60;;
16965;SDS011;8599;47.852;12.070;2022-09-09T12:50:57;2.77;;;1.50;;
16965;SDS011;8599;47.852;12.070;2022-09-09T12:53:26;4.27;;;1.40;;
16965;SDS011;8599;47.852;12.070;2022-09-09T12:55:56;2.27;;;1.40;;
16965;SDS011;8599;47.852;12.070;2022-09-09T12:58:25;4.20;;;1.80;;
16965;SDS011;8599;47.852;12.070;2022-09-09T13:00:57;5.73;;;1.80;;
16965;SDS011;8599;47.852;12.070;2022-09-09T13:03:26;2.83;;;1.60;;
16965;SDS011;8599;47.852;12.070;2022-09-09T13:05:54;4.00;;;1.60;;
16965;SDS011;8599;47.852;12.070;2022-09-09T13:08:25;4.03;;;1.27;;
16965;SDS011;8599;47.852;12.070;2022-09-09T13:10:54;1.97;;;1.20;;
16965;SDS011;8599;47.852;12.070;2022-09-09T13:13:26;2.70;;;1.57;;
16965;SDS011;8599;47.852;12.070;2022-09-09T13:15:55;2.63;;;0.80;;
16965;SDS011;8599;47.852;12.070;2022-09-09T13:18:24;4.03;;;1.40;;
16965;SDS011;8599;47.852;12.070;2022-09-09T13:20:55;2.63;;;1.10;;
16965;SDS011;8599;47.852;12.070;2022-09-09T13:23:24;3.23;;;1.10;;
16965;SDS011;8599;47.852;12.070;2022-09-09T13:25:55;3.97;;;0.77;;
16965;SDS011;8599;47.852;12.070;2022-09-09T13:28:23;1.37;;;1.00;;
16965;SDS011;8599;47.852;12.070;2022-09-09T13:30:56;2.13;;;1.23;;
16965;SDS011;8599;47.852;12.070;2022-09-09T13:33:33;2.17;;;1.10;;
16965;SDS011;8599;47.852;12.070;2022-09-09T13:36:02;3.73;;;1.43;;
16965;SDS011;8599;47.852;12.070;2022-09-09T13:38:32;7.00;;;1.20;;
16965;SDS011;8599;47.852;12.070;2022-09-09T13:41:02;5.63;;;1.57;;
16965;SDS011;8599;47.852;12.070;2022-09-09T13:43:34;4.87;;;1.30;;
16965;SDS011;8599;47.852;12.070;2022-09-09T13:46:03;4.40;;;1.10;;
16965;SDS011;8599;47.852;12.070;2022-09-09T13:48:33;4.57;;;1.20;;
16965;SDS011;8599;47.852;12.070;2022-09-09T13:51:01;4.63;;;1.20;;
16965;SDS011;8599;47.852;12.070;2022-09-09T13:53:30;2.00;;;1.47;;
16965;SDS011;8599;47.852;12.070;2022-09-09T13:56:01;20.93;;;2.33;;
16965;SDS011;8599;47.852;12.070;2022-09-09T13:58:27;4.10;;;1.37;;
16965;SDS011;8599;47.852;12.070;2022-09-09T14:00:54;7.93;;;1.33;;
16965;SDS011;8599;47.852;12.070;2022-09-09T14:03:22;5.17;;;1.40;;
16965;SDS011;8599;47.852;12.070;2022-09-09T14:05:50;2.77;;;2.00;;
16965;SDS011;8599;47.852;12.070;2022-09-09T14:08:21;1.50;;;1.37;;
16965;SDS011;8599;47.852;12.070;2022-09-09T14:10:51;5.03;;;1.60;;
16965;SDS011;8599;47.852;12.070;2022-09-09T14:13:22;4.17;;;1.47;;
16965;SDS011;8599;47.852;12.070;2022-09-09T14:15:49;4.80;;;1.67;;
16965;SDS011;8599;47.852;12.070;2022-09-09T14:18:16;19.67;;;2.60;;
16965;SDS011;8599;47.852;12.070;2022-09-09T14:20:43;1.80;;;1.10;;
16965;SDS011;8599;47.852;12.070;2022-09-09T14:23:12;9.27;;;3.23;;
16965;SDS011;8599;47.852;12.070;2022-09-09T14:25:41;3.00;;;1.10;;
16965;SDS011;8599;47.852;12.070;2022-09-09T14:28:09;0.80;;;0.80;;
16965;SDS011;8599;47.852;12.070;2022-09-09T14:30:38;2.67;;;0.97;;
16965;SDS011;8599;47.852;12.070;2022-09-09T14:33:05;2.50;;;1.13;;
16965;SDS011;8599;47.852;12.070;2022-09-09T14:35:33;1.80;;;0.80;;
16965;SDS011;8599;47.852;12.070;2022-09-09T14:38:01;2.30;;;1.03;;
16965;SDS011;8599;47.852;12.070;2022-09-09T14:40:30;1.50;;;1.40;;
16965;SDS011;8599;47.852;12.070;2022-09-09T14:42:56;1.83;;;1.67;;
16965;SDS011;8599;47.852;12.070;2022-09-09T14:45:24;3.50;;;0.83;;
16965;SDS011;8599;47.852;12.070;2022-09-09T14:47:51;2.03;;;1.10;;
16965;SDS011;8599;47.852;12.070;2022-09-09T14:50:18;3.07;;;1.20;;
16965;SDS011;8599;47.852;12.070;2022-09-09T14:52:45;3.30;;;0.90;;
16965;SDS011;8599;47.852;12.070;2022-09-09T14:55:14;1.97;;;1.03;;
16965;SDS011;8599;47.852;12.070;2022-09-09T14:57:42;3.17;;;2.07;;
16965;SDS011;8599;47.852;12.070;2022-09-09T15:00:10;2.53;;;1.27;;
16965;SDS011;8599;47.852;12.070;2022-09-09T15:02:38;5.87;;;0.90;;
16965;SDS011;8599;47.852;12.070;2022-09-09T15:05:05;1.13;;;0.70;;
16965;SDS011;8599;47.852;12.070;2022-09-09T15:07:33;1.17;;;1.00;;
16965;SDS011;8599;47.852;12.070;2022-09-09T15:10:00;0.97;;;0.70;;
16965;SDS011;8599;47.852;12.070;2022-09-09T15:12:28;0.73;;;0.73;;